Terminal Aerodrome Forecast
Issued by NWS

Home | Current Version | Previous Version | Text Only | Print | Product List | Glossary On
Versions: 1 2 3 4 5 6 7 8 9 10 11 12 13 14 15 16 17 18
000
FTUS46 KSEW 301300 AAB
TAFPAE
TAF AMD
KPAE 301354Z 3014/3112 VRB03KT P6SM SCT005 OVC015
      TEMPO 3014/3016 -RA BKN005 OVC015
     FM301600 17005KT 6SM -RA BR SCT005 OVC012
     FM302200 21005KT P6SM -SHRA BKN020 OVC035
     FM310200 VRB03KT P6SM VCSH SCT020 BKN035 BKN060 PROB30
      3102/3108 -SHRA
     FM310800 01005KT P6SM SCT020 OVC040=

USA.gov is the U.S. government's official web portal to all federal, state and local government web resources and services.